Time;durP1;ratioP1;P1;durP2;ratioP2;P2;SDS_P1;SDS_P2;PMS_P1;PMS_P2;Temp;Humidity;BMP_temperature;BMP_pressure;BME280_temperature;BME280_humidity;BME280_pressure;Samples;Min_cycle;Max_cycle;Signal;HPM_P1;HPM_P2
2022/02/25 00:02:20;;;;;;;;;3.00;1.00;;;;;9.64;100.00;101595.09;6260190;22;45388;-87
2022/02/25 00:04:45;;;;;;;;;1.00;1.00;;;;;9.71;100.00;101614.75;6260007;22;46782;-87
2022/02/25 00:07:11;;;;;;;;;2.00;1.00;;;;;9.65;100.00;101606.59;6260680;22;45668;-87
2022/02/25 00:09:36;;;;;;;;;3.00;1.00;;;;;9.61;100.00;101610.91;6255258;22;44746;-87
2022/02/25 00:12:08;;;;;;;;;4.00;1.67;;;;;9.99;100.00;101624.50;6229323;22;45293;-87
2022/02/25 00:17:56;;;;;;;;;1.67;0.67;;;;;9.61;100.00;101624.19;6256811;22;45362;-87
2022/02/25 00:20:22;;;;;;;;;8.00;5.00;;;;;9.56;100.00;101623.16;6255953;22;45167;-87
2022/02/25 00:22:47;;;;;;;;;2.00;1.00;;;;;9.61;100.00;101632.16;6228697;22;44793;-87
2022/02/25 00:25:13;;;;;;;;;2.00;2.00;;;;;9.58;100.00;101635.63;6227846;22;47103;-86
2022/02/25 00:27:43;;;;;;;;;1.00;1.00;;;;;9.73;100.00;101640.50;6257094;22;45340;-86
2022/02/25 00:30:13;;;;;;;;;2.00;2.00;;;;;9.72;100.00;101641.38;6256785;22;45177;-87
2022/02/25 00:32:39;;;;;;;;;3.00;1.00;;;;;9.59;100.00;101637.44;6256664;22;45809;-86
2022/02/25 00:35:06;;;;;;;;;2.33;2.33;;;;;9.73;100.00;101645.81;6229377;22;46646;-87
2022/02/25 00:37:32;;;;;;;;;3.67;2.00;;;;;9.54;100.00;101643.44;6204277;22;45361;-87
2022/02/25 00:39:57;;;;;;;;;1.00;1.00;;;;;9.49;100.00;101643.28;6229423;22;45768;-87
2022/02/25 00:42:23;;;;;;;;;1.00;1.00;;;;;9.57;100.00;101643.53;6257160;22;45270;-87
2022/02/25 00:44:48;;;;;;;;;1.67;1.00;;;;;9.48;100.00;101649.44;6257075;22;46153;-87
2022/02/25 00:47:14;;;;;;;;;4.00;2.67;;;;;9.50;100.00;101642.44;6256021;22;45169;-87
2022/02/25 00:49:40;;;;;;;;;1.67;1.00;;;;;9.47;100.00;101647.63;6256251;22;45127;-87
2022/02/25 00:52:06;;;;;;;;;1.00;1.00;;;;;9.46;100.00;101653.81;6259217;22;45298;-87
2022/02/25 00:54:31;;;;;;;;;4.33;2.00;;;;;9.48;100.00;101653.88;6230729;22;47064;-87
2022/02/25 00:56:56;;;;;;;;;1.00;1.00;;;;;9.48;100.00;101668.03;6230928;22;45565;-87
2022/02/25 00:59:22;;;;;;;;;0.00;0.00;;;;;9.47;100.00;101667.97;6259727;22;44683;-87
2022/02/25 01:01:48;;;;;;;;;2.00;1.00;;;;;9.46;100.00;101671.50;6232966;22;45547;-87
2022/02/25 01:04:14;;;;;;;;;3.00;1.67;;;;;9.57;100.00;101672.75;6206651;22;47811;-87
2022/02/25 01:06:41;;;;;;;;;3.67;2.00;;;;;9.47;100.00;101663.56;6255360;22;45252;-87
2022/02/25 01:09:08;;;;;;;;;6.00;2.00;;;;;9.65;100.00;101676.53;6262086;22;45451;-87
2022/02/25 01:11:34;;;;;;;;;6.00;1.67;;;;;9.38;100.00;101666.81;6263650;22;45565;-87
2022/02/25 01:14:00;;;;;;;;;1.33;1.33;;;;;9.41;100.00;101684.59;6289997;22;45654;-87
2022/02/25 01:16:25;;;;;;;;;2.00;0.67;;;;;9.33;100.00;101689.66;6260150;22;45290;-87
2022/02/25 01:18:51;;;;;;;;;0.00;0.00;;;;;9.35;100.00;101685.31;6260848;22;45237;-87
2022/02/25 01:21:16;;;;;;;;;0.67;0.33;;;;;9.29;100.00;101676.22;6289014;22;45341;-87
2022/02/25 01:23:42;;;;;;;;;2.33;1.33;;;;;9.34;100.00;101687.91;6261163;22;47143;-87
2022/02/25 01:26:08;;;;;;;;;2.00;2.00;;;;;9.37;100.00;101680.97;6261496;22;46206;-87
2022/02/25 01:28:34;;;;;;;;;1.00;0.00;;;;;9.34;100.00;101687.91;6260511;22;45872;-87
2022/02/25 01:31:01;;;;;;;;;0.33;0.33;;;;;9.40;100.00;101680.16;6260481;22;45896;-87
2022/02/25 01:33:28;;;;;;;;;1.00;1.00;;;;;9.35;100.00;101695.00;6261230;22;48479;-87
2022/02/25 01:35:54;;;;;;;;;1.33;1.33;;;;;9.30;100.00;101701.94;6235796;22;45350;-86
2022/02/25 01:38:20;;;;;;;;;1.67;1.67;;;;;9.29;100.00;101698.38;6260067;22;45512;-86
2022/02/25 01:40:45;;;;;;;;;0.33;0.33;;;;;9.28;100.00;101699.22;6260797;22;45670;-87
2022/02/25 01:43:11;;;;;;;;;3.00;2.00;;;;;9.29;100.00;101701.03;6260983;22;47553;-87
2022/02/25 01:45:37;;;;;;;;;1.00;1.00;;;;;9.24;100.00;101699.97;6288370;22;45321;-86
2022/02/25 01:48:04;;;;;;;;;1.00;1.00;;;;;9.32;100.00;101698.47;6284201;22;44704;-86
2022/02/25 01:50:29;;;;;;;;;3.33;2.00;;;;;9.17;100.00;101688.22;6259441;22;45318;-87
2022/02/25 01:53:01;;;;;;;;;2.67;2.00;;;;;9.50;100.00;101697.31;6259139;22;47150;-86
2022/02/25 01:55:29;;;;;;;;;2.00;2.00;;;;;9.30;100.00;101692.19;6259313;22;45212;-86
2022/02/25 01:57:55;;;;;;;;;2.67;2.00;;;;;9.17;100.00;101689.97;6288191;22;45412;-87
2022/02/25 02:00:20;;;;;;;;;1.00;1.00;;;;;9.14;100.00;101693.41;6261297;22;45354;-86
2022/02/25 02:02:46;;;;;;;;;1.33;1.33;;;;;9.17;100.00;101689.97;6261637;22;47151;-86
2022/02/25 02:05:14;;;;;;;;;0.67;0.67;;;;;9.39;100.00;101703.16;6261348;22;45416;-85
2022/02/25 02:07:39;;;;;;;;;2.33;1.33;;;;;9.15;100.00;101687.28;6261771;22;45714;-86
2022/02/25 02:10:05;;;;;;;;;1.00;1.00;;;;;9.18;100.00;101694.44;6256545;22;45320;-87
2022/02/25 02:12:31;;;;;;;;;0.67;0.67;;;;;9.13;100.00;101699.59;6257260;22;46701;-86
2022/02/25 02:14:57;;;;;;;;;4.67;3.00;;;;;9.15;100.00;101696.97;6289678;22;45533;-86
2022/02/25 02:17:23;;;;;;;;;3.33;2.33;;;;;9.13;100.00;101699.59;6261106;22;45311;-85
2022/02/25 02:19:48;;;;;;;;;3.00;1.00;;;;;9.10;100.00;101695.91;6289143;22;45288;-86
2022/02/25 02:22:15;;;;;;;;;1.00;1.00;;;;;9.26;100.00;101692.94;6277394;22;48299;-86
2022/02/25 02:24:41;;;;;;;;;1.00;1.00;;;;;9.05;100.00;101697.50;6289130;22;45389;-86
2022/02/25 02:27:06;;;;;;;;;2.00;1.00;;;;;8.97;100.00;101698.13;6261621;22;45271;-85
2022/02/25 02:29:32;;;;;;;;;5.00;3.00;;;;;8.96;100.00;101696.31;6287551;22;44768;-85
2022/02/25 02:31:57;;;;;;;;;2.33;2.33;;;;;9.00;100.00;101692.91;6287871;22;45334;-85
2022/02/25 02:34:24;;;;;;;;;2.00;1.00;;;;;9.15;100.00;101692.59;6288576;22;45403;-85
2022/02/25 02:36:50;;;;;;;;;1.00;1.00;;;;;8.95;100.00;101689.22;6260894;22;45319;-85
2022/02/25 02:39:16;;;;;;;;;1.00;1.00;;;;;9.04;100.00;101682.44;6260455;22;44701;-85
2022/02/25 02:41:43;;;;;;;;;2.00;1.00;;;;;8.92;100.00;101701.47;6288033;22;45471;-85
2022/02/25 02:44:09;;;;;;;;;1.67;1.67;;;;;8.89;100.00;101704.03;6289412;22;45490;-85
2022/02/25 02:46:35;;;;;;;;;1.67;1.00;;;;;8.87;100.00;101701.31;6261191;22;45439;-85
2022/02/25 02:49:01;;;;;;;;;1.67;1.33;;;;;8.92;100.00;101699.72;6261930;22;45785;-85
2022/02/25 02:51:29;;;;;;;;;2.00;2.00;;;;;8.91;100.00;101697.91;6259493;22;47883;-85
2022/02/25 02:53:57;;;;;;;;;0.67;0.67;;;;;8.90;100.00;101695.19;6286624;22;45425;-86
2022/02/25 02:56:22;;;;;;;;;3.33;1.67;;;;;8.86;100.00;101678.25;6289171;22;44728;-85
2022/02/25 02:58:55;;;;;;;;;2.00;2.00;;;;;8.93;100.00;101682.97;6258261;22;45294;-86
2022/02/25 03:01:29;;;;;;;;;0.00;0.00;;;;;9.02;100.00;101675.31;6285810;22;46018;-86
2022/02/25 03:03:56;;;;;;;;;1.67;1.00;;;;;8.98;100.00;101680.47;6285645;22;45337;-85
2022/02/25 03:06:23;;;;;;;;;3.67;3.00;;;;;9.02;100.00;101690.34;6257127;22;45324;-86
2022/02/25 03:08:48;;;;;;;;;1.67;1.00;;;;;8.95;100.00;101688.31;6258271;22;45361;-85
2022/02/25 03:11:14;;;;;;;;;2.33;0.67;;;;;8.98;100.00;101693.72;6255329;22;47300;-85
2022/02/25 03:13:41;;;;;;;;;2.00;2.00;;;;;9.25;100.00;101692.88;6232796;22;45747;-85
2022/02/25 03:16:06;;;;;;;;;1.00;1.00;;;;;9.01;100.00;101700.06;6231356;22;45757;-85
2022/02/25 03:18:31;;;;;;;;;0.00;0.00;;;;;9.02;100.00;101696.53;6231376;22;45421;-85
2022/02/25 03:20:57;;;;;;;;;2.00;1.00;;;;;9.02;100.00;101706.25;6231224;22;47528;-87
2022/02/25 03:23:22;;;;;;;;;1.00;1.00;;;;;8.99;100.00;101704.41;6231056;22;45309;-85
2022/02/25 03:26:31;;;;;;;;;1.00;1.00;;;;;9.39;100.00;101697.84;6231013;22;45400;-85
2022/02/25 03:28:56;;;;;;;;;0.33;0.33;;;;;9.00;100.00;101695.56;6229977;22;45683;-86
2022/02/25 03:31:24;;;;;;;;;0.00;0.00;;;;;9.02;100.00;101704.50;6230173;22;47436;-85
2022/02/25 03:33:50;;;;;;;;;0.00;0.00;;;;;8.98;100.00;101701.69;6230422;22;45411;-85
2022/02/25 03:36:15;;;;;;;;;1.67;0.33;;;;;9.00;100.00;101703.53;6258320;22;45569;-85
2022/02/25 03:39:31;;;;;;;;;3.33;0.00;;;;;9.40;100.00;101709.34;6233027;22;44770;-86
2022/02/25 03:41:56;;;;;;;;;2.00;0.67;;;;;8.96;100.00;101717.53;6230737;22;47440;-86
2022/02/25 03:44:22;;;;;;;;;1.00;0.67;;;;;8.93;100.00;101714.78;6229832;22;44848;-86
2022/02/25 03:46:47;;;;;;;;;1.00;0.00;;;;;8.90;100.00;101716.44;6230019;22;45643;-86
2022/02/25 03:49:17;;;;;;;;;1.00;1.00;;;;;8.91;100.00;101718.25;6229518;22;45367;-85
2022/02/25 03:51:44;;;;;;;;;0.67;0.67;;;;;9.11;100.00;101722.50;6229816;22;46832;-86
2022/02/25 03:54:10;;;;;;;;;1.00;1.00;;;;;8.90;100.00;101716.44;6229734;22;45302;-86
2022/02/25 03:56:36;;;;;;;;;3.00;1.67;;;;;8.93;100.00;101711.25;6256340;22;45710;-86
2022/02/25 03:59:03;;;;;;;;;1.00;1.00;;;;;8.84;100.00;101714.44;6229709;22;44883;-86
2022/02/25 04:01:28;;;;;;;;;2.00;2.00;;;;;8.90;100.00;101727.94;6256431;22;45342;-85
2022/02/25 04:03:54;;;;;;;;;2.00;2.00;;;;;8.84;100.00;101713.56;6254970;22;45327;-86
2022/02/25 04:06:20;;;;;;;;;2.00;0.33;;;;;9.00;100.00;101724.75;6227349;22;45363;-86
2022/02/25 04:08:47;;;;;;;;;5.00;1.00;;;;;9.02;100.00;101728.38;6229921;22;45763;-86
2022/02/25 04:11:12;;;;;;;;;1.00;1.00;;;;;8.84;100.00;101724.16;6281280;22;46379;-87
2022/02/25 04:13:39;;;;;;;;;3.00;0.67;;;;;9.04;100.00;101719.59;6289168;22;45275;-85
2022/02/25 04:16:07;;;;;;;;;0.00;0.00;;;;;8.88;100.00;101728.72;6263686;22;44824;-85
2022/02/25 04:18:32;;;;;;;;;3.33;3.33;;;;;8.90;100.00;101733.25;6290574;22;45388;-86
2022/02/25 04:20:58;;;;;;;;;1.00;1.00;;;;;8.86;100.00;101733.06;6262464;22;48178;-85
2022/02/25 04:23:24;;;;;;;;;0.00;0.00;;;;;8.80;100.00;101733.75;6289165;22;45715;-86
2022/02/25 04:25:50;;;;;;;;;1.00;1.00;;;;;8.96;100.00;101748.47;6260054;22;45652;-87
2022/02/25 04:28:22;;;;;;;;;0.67;0.67;;;;;8.89;100.00;101734.09;6260267;22;44831;-87
2022/02/25 04:30:47;;;;;;;;;2.00;2.00;;;;;8.93;100.00;101749.28;6258454;22;47381;-86
2022/02/25 04:33:13;;;;;;;;;1.67;1.67;;;;;8.98;100.00;101747.69;6257539;22;45342;-86
2022/02/25 04:36:35;;;;;;;;;0.00;0.00;;;;;9.28;100.00;101749.66;6258069;22;45405;-86
2022/02/25 04:39:01;;;;;;;;;1.33;1.33;;;;;8.93;100.00;101756.34;6259810;22;45540;-86
2022/02/25 04:41:26;;;;;;;;;0.00;0.00;;;;;8.90;100.00;101748.25;6287223;22;45668;-85
2022/02/25 04:43:51;;;;;;;;;1.00;0.00;;;;;8.93;100.00;101770.50;6284701;22;44953;-86
2022/02/25 04:46:25;;;;;;;;;0.67;0.67;;;;;9.12;100.00;101760.56;6285746;22;45373;-86
2022/02/25 04:48:51;;;;;;;;;1.00;1.00;;;;;8.86;100.00;101757.84;6260243;22;45705;-86
2022/02/25 04:51:16;;;;;;;;;1.00;1.00;;;;;8.93;100.00;101759.91;6259293;22;46669;-86
2022/02/25 04:53:43;;;;;;;;;1.00;1.00;;;;;9.04;100.00;101762.94;6257770;22;45444;-86
2022/02/25 04:56:09;;;;;;;;;0.33;0.00;;;;;8.93;100.00;101759.91;6258386;22;45262;-86
2022/02/25 04:58:35;;;;;;;;;0.00;0.00;;;;;8.92;100.00;101771.34;6257730;22;45721;-86
2022/02/25 05:01:02;;;;;;;;;0.00;0.00;;;;;9.07;100.00;101767.44;6257537;22;47301;-86
2022/02/25 05:03:28;;;;;;;;;0.00;0.00;;;;;8.91;100.00;101777.50;6257361;22;45356;-86
2022/02/25 05:05:54;;;;;;;;;0.67;0.33;;;;;8.77;100.00;101749.56;6258019;22;45283;-86
2022/02/25 05:08:20;;;;;;;;;1.67;0.67;;;;;8.84;100.00;101772.81;6256510;22;45756;-86
2022/02/25 05:10:45;;;;;;;;;0.00;0.00;;;;;8.88;100.00;101781.78;6277785;22;48121;-86
2022/02/25 05:13:10;;;;;;;;;2.00;1.00;;;;;8.84;100.00;101775.44;6252452;22;45408;-87
2022/02/25 05:21:05;;;;;;;;;0.67;0.67;;;;;8.91;100.00;101792.53;6285819;22;45424;-86
2022/02/25 05:23:31;;;;;;;;;0.00;0.00;;;;;8.82;100.00;101777.16;6259441;22;46012;-86
2022/02/25 05:25:56;;;;;;;;;0.00;0.00;;;;;8.87;100.00;101794.16;6257507;22;45420;-86
2022/02/25 05:28:22;;;;;;;;;0.67;0.33;;;;;8.90;100.00;101794.25;6262189;22;45498;-86
2022/02/25 05:30:47;;;;;;;;;3.33;2.00;;;;;8.89;100.00;101792.47;6261508;22;48026;-85
2022/02/25 05:33:13;;;;;;;;;1.00;1.00;;;;;8.88;100.00;101793.28;6262363;22;45401;-86
2022/02/25 05:35:38;;;;;;;;;1.67;1.33;;;;;8.85;100.00;101784.31;6262091;22;45410;-86
2022/02/25 05:38:05;;;;;;;;;1.33;0.67;;;;;8.98;100.00;101792.78;6290983;22;45319;-86
2022/02/25 05:40:30;;;;;;;;;0.00;0.00;;;;;8.87;100.00;101794.16;6289348;22;45441;-85
2022/02/25 05:42:56;;;;;;;;;0.33;0.33;;;;;8.88;100.00;101814.50;6262265;22;45323;-85
2022/02/25 05:45:22;;;;;;;;;0.00;0.00;;;;;8.94;100.00;101805.88;6258559;22;45317;-85
2022/02/25 05:47:49;;;;;;;;;3.33;1.33;;;;;9.10;100.00;101808.28;6260245;22;45340;-85
2022/02/25 05:50:18;;;;;;;;;1.00;1.00;;;;;9.01;100.00;101819.44;6259727;22;46886;-85
2022/02/25 05:52:45;;;;;;;;;1.00;1.00;;;;;8.93;100.00;101818.25;6260120;22;45659;-85
2022/02/25 05:55:11;;;;;;;;;2.33;1.00;;;;;8.81;100.00;101818.69;6262359;22;45617;-85
2022/02/25 05:57:37;;;;;;;;;0.33;0.33;;;;;8.72;100.00;101823.63;6289806;22;45299;-85
2022/02/25 06:00:09;;;;;;;;;1.00;1.00;;;;;9.00;100.00;101824.69;6289258;22;46084;-85
2022/02/25 06:02:35;;;;;;;;;1.00;1.00;;;;;8.45;100.00;101786.34;6262580;22;45615;-85
2022/02/25 06:05:02;;;;;;;;;0.00;0.00;;;;;8.71;100.00;101812.97;6262676;22;45319;-86
2022/02/25 06:07:28;;;;;;;;;1.00;0.00;;;;;8.64;100.00;101813.56;6262928;22;45453;-85
2022/02/25 06:09:54;;;;;;;;;0.67;0.67;;;;;8.66;100.00;101843.72;6260276;22;48031;-86
2022/02/25 06:12:26;;;;;;;;;0.00;0.00;;;;;9.00;100.00;101841.50;6258456;22;45709;-87
2022/02/25 06:14:52;;;;;;;;;0.67;0.00;;;;;8.63;100.00;101847.16;6258737;22;45304;-86
2022/02/25 06:17:18;;;;;;;;;5.00;1.67;;;;;8.85;100.00;101843.59;6260819;22;45345;-85
2022/02/25 06:19:44;;;;;;;;;1.00;1.00;;;;;8.60;100.00;101845.28;6260180;22;47017;-85
2022/02/25 06:22:10;;;;;;;;;6.33;2.33;;;;;8.62;100.00;101850.63;6259907;22;45742;-85
2022/02/25 06:24:35;;;;;;;;;4.67;2.00;;;;;8.67;100.00;101858.78;6260846;22;45389;-86
2022/02/25 06:27:01;;;;;;;;;4.33;1.67;;;;;8.70;100.00;101853.59;6262742;22;44780;-85
2022/02/25 06:29:26;;;;;;;;;0.67;0.67;;;;;8.69;100.00;101857.09;6261039;22;48023;-85
2022/02/25 06:31:51;;;;;;;;;3.00;2.00;;;;;8.73;100.00;101869.63;6261000;22;45315;-84
2022/02/25 06:34:18;;;;;;;;;1.33;1.33;;;;;8.52;100.00;101841.41;6287880;22;45420;-86
2022/02/25 06:36:44;;;;;;;;;0.00;0.00;;;;;8.91;100.00;101862.41;6259201;22;45612;-85
2022/02/25 06:39:10;;;;;;;;;0.33;0.33;;;;;8.60;100.00;101855.91;6286352;22;46242;-85
2022/02/25 06:41:35;;;;;;;;;1.00;1.00;;;;;8.52;100.00;101846.69;6287704;22;45348;-85
2022/02/25 06:44:04;;;;;;;;;2.00;2.00;;;;;8.99;100.00;101868.00;6258523;22;45338;-85
2022/02/25 06:46:30;;;;;;;;;1.00;1.00;;;;;8.79;100.00;101878.75;6259958;22;45505;-85
2022/02/25 06:48:55;;;;;;;;;0.00;0.00;;;;;8.65;100.00;101857.81;6260160;22;47236;-85
2022/02/25 06:51:21;;;;;;;;;6.00;0.00;;;;;8.85;100.00;101878.09;6260532;22;45842;-86
2022/02/25 06:53:46;;;;;;;;;1.00;1.00;;;;;8.69;100.00;101844.75;6260102;22;45280;-85
2022/02/25 06:56:12;;;;;;;;;3.33;1.00;;;;;8.84;100.00;101868.28;6287210;22;45440;-85
2022/02/25 06:58:38;;;;;;;;;0.33;0.33;;;;;8.75;100.00;101838.78;6261700;22;45515;-88
2022/02/25 07:01:05;;;;;;;;;0.00;0.00;;;;;9.01;100.00;101877.84;6260422;22;45473;-86
2022/02/25 07:03:31;;;;;;;;;0.00;0.00;;;;;8.92;100.00;101885.41;6259956;22;45335;-87
2022/02/25 07:05:57;;;;;;;;;2.00;1.67;;;;;8.84;100.00;101876.25;6260248;22;45299;-87
2022/02/25 07:08:23;;;;;;;;;1.00;0.00;;;;;9.00;100.00;101891.03;6287160;22;45601;-86
2022/02/25 07:10:49;;;;;;;;;1.33;1.00;;;;;8.98;100.00;101880.34;6257021;22;46182;-88
2022/02/25 07:13:16;;;;;;;;;3.33;3.33;;;;;9.12;100.00;101882.66;6289222;22;45388;-87
2022/02/25 07:15:41;;;;;;;;;2.00;2.00;;;;;8.75;100.00;101855.59;6260561;22;45424;-87
2022/02/25 07:18:09;;;;;;;;;1.00;1.00;;;;;9.21;100.00;101877.69;6286872;22;45318;-87
2022/02/25 07:20:36;;;;;;;;;1.00;1.00;;;;;9.21;100.00;101877.69;6261939;22;45342;-87
2022/02/25 07:23:03;;;;;;;;;2.00;1.00;;;;;9.03;100.00;101856.66;6262475;22;45312;-86
2022/02/25 07:25:29;;;;;;;;;4.67;1.00;;;;;8.95;100.00;101848.41;6261264;22;45697;-86
2022/02/25 07:27:55;;;;;;;;;1.33;1.33;;;;;9.26;100.00;101897.34;6260555;22;46799;-86
2022/02/25 07:30:26;;;;;;;;;1.00;1.00;;;;;9.57;100.00;101898.47;6260337;22;45484;-86
2022/02/25 07:32:56;;;;;;;;;1.00;1.00;;;;;9.33;100.00;101851.59;6259680;22;45431;-86
2022/02/25 07:35:22;;;;;;;;;1.00;1.00;;;;;9.15;100.00;101832.31;6259835;22;45431;-86
2022/02/25 07:37:49;;;;;;;;;1.00;1.00;;;;;9.71;100.00;101870.66;6259963;22;47064;-86
2022/02/25 07:40:15;;;;;;;;;1.00;1.00;;;;;9.62;100.00;101894.25;6260674;22;45556;-86
2022/02/25 07:42:50;;;;;;;;;2.00;2.00;;;;;9.59;100.00;101844.59;6260308;22;45273;-86
2022/02/25 07:45:21;;;;;;;;;5.00;1.00;;;;;9.68;100.00;101854.63;6261418;22;45017;-87
2022/02/25 07:47:46;;;;;;;;;2.00;2.00;;;;;9.65;100.00;101920.91;6261198;22;48166;-86
2022/02/25 07:50:14;;;;;;;;;1.67;1.67;;;;;9.76;100.00;101890.34;6260829;22;44906;-86
2022/02/25 07:52:43;;;;;;;;;0.00;0.00;;;;;9.81;100.00;101886.06;6236763;22;45530;-86
2022/02/25 07:55:14;;;;;;;;;1.00;1.00;;;;;10.10;100.00;101918.13;6235142;22;45338;-86
2022/02/25 07:57:42;;;;;;;;;0.67;0.67;;;;;10.08;100.00;101897.63;6259984;22;46789;-86
2022/02/25 08:00:15;;;;;;;;;1.00;1.00;;;;;10.06;100.00;101917.94;6259486;22;45317;-87
2022/02/25 08:02:47;;;;;;;;;1.67;1.67;;;;;10.29;100.00;101918.75;6261931;22;44698;-87
2022/02/25 08:05:13;;;;;;;;;1.67;1.67;;;;;9.90;100.00;101888.19;6261538;22;45424;-86
2022/02/25 08:07:45;;;;;;;;;1.00;1.00;;;;;10.13;100.00;101870.34;6261471;22;46834;-87
2022/02/25 08:10:19;;;;;;;;;0.00;0.00;;;;;10.19;100.00;101878.53;6255026;22;45762;-87
2022/02/25 08:12:51;;;;;;;;;2.00;2.00;;;;;10.17;100.00;101919.22;6227256;22;45836;-85
2022/02/25 08:15:36;;;;;;;;;2.33;1.00;;;;;10.28;100.00;101927.56;6255741;22;45405;-86
2022/02/25 08:19:33;;;;;;;;;;;;;;;;;;;;;
2022/02/25 08:25:04;;;;;;;;;6.00;2.00;;;;;10.30;100.00;101894.91;6174614;22;45389;-87
2022/02/25 08:27:50;;;;;;;;;2.00;2.00;;;;;10.57;100.00;101936.56;6145549;23;44925;-87
2022/02/25 08:30:26;;;;;;;;;1.33;1.00;;;;;10.51;100.00;101944.34;6145298;23;45348;-86
2022/02/25 08:46:49;;;;;;;;;1.67;1.67;;;;;10.55;100.00;101909.91;6136847;23;45383;-86
2022/02/25 08:49:36;;;;;;;;;5.00;2.00;;;;;10.69;100.00;101965.34;6138547;23;45636;-87
2022/02/25 08:55:25;;;;;;;;;5.00;3.00;;;;;10.91;100.00;101943.88;6087742;23;45414;-87
2022/02/25 08:58:01;;;;;;;;;1.67;1.67;;;;;10.52;100.00;101920.47;6083810;23;44884;-86
2022/02/25 09:00:36;;;;;;;;;3.00;2.00;;;;;11.13;100.00;101979.16;6107424;23;45574;-86
2022/02/25 09:03:24;;;;;;;;;5.33;1.67;;;;;11.00;100.00;101968.13;6106303;23;45564;-86
2022/02/25 09:06:11;;;;;;;;;3.00;3.00;;;;;11.32;100.00;101985.97;6056228;23;45329;-86
2022/02/25 09:08:39;;;;;;;;;2.33;2.00;;;;;10.74;100.00;101956.63;6103083;23;45365;-86
2022/02/25 09:18:10;;;;;;;;;3.67;3.33;;;;;11.00;100.00;101964.56;6134476;23;45510;-87
2022/02/25 09:32:14;;;;;;;;;;;;;;;;;;;;;
2022/02/25 09:39:05;;;;;;;;;6.00;2.00;;;;;11.52;100.00;102037.22;6169860;22;45482;-86
2022/02/25 09:42:07;;;;;;;;;1.00;1.00;;;;;11.55;100.00;102039.97;6137078;23;45353;-87
2022/02/25 09:44:38;;;;;;;;;1.00;0.00;;;;;11.29;100.00;102015.16;6139611;23;45780;-86
2022/02/25 09:47:21;;;;;;;;;;;;;;;;;;;;;
2022/02/25 09:50:33;;;;;;;;;2.33;2.00;;;;;11.45;100.00;102043.19;6166472;23;67402;-86
2022/02/25 09:53:03;;;;;;;;;6.00;2.00;;;;;11.00;100.00;102045.31;6142526;23;45446;-87
2022/02/25 10:03:29;;;;;;;;;5.67;5.00;;;;;11.77;100.00;102066.41;6024942;23;45528;-86
2022/02/25 10:26:55;;;;;;;;;2.00;2.00;;;;;12.31;100.00;102083.13;5908694;24;45515;-86
2022/02/25 10:29:58;;;;;;;;;5.00;2.33;;;;;12.53;100.00;102080.19;5940649;23;45405;-85
2022/02/25 11:11:34;;;;;;;;;2.00;2.00;;;;;13.75;100.00;102091.28;6287845;22;46035;-86
2022/02/25 11:14:14;;;;;;;;;2.33;2.00;;;;;13.53;100.00;102080.09;6248571;22;45235;-86
2022/02/25 11:16:55;;;;;;;;;1.00;1.00;;;;;13.70;100.00;102090.28;6235555;22;44927;-85
2022/02/25 11:57:59;;;;;;;;;;;;;;;;;;;;;
2022/02/25 12:04:12;;;;;;;;;4.00;2.00;;;;;14.51;100.00;102102.69;6170509;23;44703;-86
2022/02/25 12:07:02;;;;;;;;;1.67;1.67;;;;;14.34;100.00;102099.69;6216487;22;45478;-86
2022/02/25 12:09:48;;;;;;;;;4.67;1.33;;;;;14.18;100.00;102109.19;6324317;22;45397;-86
2022/02/25 12:13:02;;;;;;;;;;;;;;;;;;;;;
2022/02/25 12:15:49;;;;;;;;;2.00;1.67;;;;;13.80;100.00;102089.63;6283890;22;71827;-86
2022/02/25 12:22:35;;;;;;;;;2.00;2.00;;;;;13.60;100.00;102119.47;6259867;22;45770;-85
2022/02/25 12:25:12;;;;;;;;;1.00;1.00;;;;;13.26;100.00;102115.03;6255598;22;45604;-87
2022/02/25 12:27:48;;;;;;;;;2.33;0.00;;;;;13.06;100.00;102076.22;6254489;22;44709;-88
2022/02/25 12:31:01;;;;;;;;;1.33;1.33;;;;;13.45;100.00;102108.38;6225695;22;45436;-88
2022/02/25 12:37:02;;;;;;;;;4.00;4.00;;;;;13.46;100.00;102106.66;6257039;22;45682;-87
2022/02/25 12:40:08;;;;;;;;;5.33;5.33;;;;;13.47;100.00;102106.69;6228793;22;45489;-85
2022/02/25 12:43:03;;;;;;;;;6.00;2.00;;;;;13.33;100.00;102090.31;6320469;22;45542;-85
2022/02/25 12:45:29;;;;;;;;;5.33;5.33;;;;;13.11;100.00;102070.16;6324581;22;45412;-84
2022/02/25 12:48:05;;;;;;;;;4.00;2.33;;;;;13.69;100.00;102124.09;6349706;22;45447;-85
2022/02/25 12:50:30;;;;;;;;;1.00;1.00;;;;;13.30;100.00;102082.22;6349564;22;45417;-85
2022/02/25 12:53:31;;;;;;;;;4.00;3.00;;;;;13.67;100.00;102104.47;6322750;22;45349;-85
2022/02/25 12:56:03;;;;;;;;;4.00;3.33;;;;;13.61;100.00;102101.66;6352978;22;45319;-87
2022/02/25 12:59:12;;;;;;;;;6.67;4.67;;;;;13.70;100.00;102120.59;6319621;22;45199;-87
2022/02/25 13:02:11;;;;;;;;;4.00;2.67;;;;;13.44;100.00;102089.66;6334814;22;45216;-88
2022/02/25 13:05:29;;;;;;;;;2.33;2.33;;;;;13.59;100.00;102095.34;6351374;22;45415;-89
2022/02/25 13:08:44;;;;;;;;;3.67;3.67;;;;;13.75;100.00;102113.56;6351603;22;45273;-86
2022/02/25 13:19:17;;;;;;;;;;;;;;;;;;;;;
2022/02/25 13:29:27;;;;;;;;;2.00;2.00;;;;;13.63;100.00;102115.94;6286298;22;45293;-87
2022/02/25 13:32:27;;;;;;;;;4.00;3.33;;;;;13.60;100.00;102107.88;6266320;22;45378;-86
2022/02/25 13:35:00;;;;;;;;;3.33;3.33;;;;;13.48;100.00;102094.22;6282707;22;45234;-87
2022/02/25 13:37:26;;;;;;;;;2.00;2.00;;;;;13.37;100.00;102105.56;6302970;22;46607;-87
2022/02/25 13:40:08;;;;;;;;;1.67;1.67;;;;;13.75;100.00;102110.00;6320231;22;45772;-86
2022/02/25 13:42:50;;;;;;;;;;;;;;;;;;;;;
2022/02/25 13:55:17;;;;;;;;;3.33;2.00;;;;;13.84;100.00;102082.56;6349514;22;45542;-86
2022/02/25 13:58:46;;;;;;;;;1.67;1.67;;;;;13.82;100.00;102066.50;6346603;22;45569;-88
2022/02/25 14:01:59;;;;;;;;;4.00;2.00;;;;;13.75;100.00;102053.84;6223978;22;45078;-87
2022/02/25 14:05:06;;;;;;;;;1.67;1.33;;;;;13.86;100.00;102078.16;6158712;23;45648;-87
2022/02/25 14:22:13;;;;;;;;;;;;;;;;;;;;;
2022/02/25 14:28:18;;;;;;;;;;;;;;;;;;;;;
2022/02/25 14:34:54;;;;;;;;;3.00;3.00;;;;;14.93;100.00;102066.91;6312567;22;45295;-85
2022/02/25 14:38:02;;;;;;;;;2.00;2.00;;;;;14.93;100.00;102063.34;6200503;22;45380;-85
2022/02/25 14:40:52;;;;;;;;;4.00;3.67;;;;;15.06;100.00;102097.50;6199402;22;46366;-87
2022/02/25 14:47:28;;;;;;;;;1.67;1.67;;;;;15.04;100.00;102076.91;6162380;23;45767;-88
2022/02/25 14:57:45;;;;;;;;;2.00;2.00;;;;;14.52;96.42;102083.09;6350862;22;44783;-85
2022/02/25 15:00:34;;;;;;;;;1.00;1.00;;;;;14.56;86.89;102114.44;6320733;22;45270;-86
2022/02/25 15:04:00;;;;;;;;;0.00;0.00;;;;;14.49;75.45;102108.91;6294847;22;46730;-85
2022/02/25 15:06:31;;;;;;;;;0.67;0.00;;;;;13.92;71.21;102099.69;6185953;23;45240;-83
2022/02/25 15:09:04;;;;;;;;;1.00;1.00;;;;;14.30;80.64;102116.56;6169236;23;45314;-87
2022/02/25 15:12:31;;;;;;;;;1.00;1.00;;;;;14.34;72.05;102121.09;6170542;23;45330;-87
2022/02/25 15:25:55;;;;;;;;;1.00;1.00;;;;;14.64;72.90;102114.56;5991648;23;45430;-86
2022/02/25 15:35:28;;;;;;;;;1.33;0.00;;;;;14.41;48.76;102132.84;5770745;24;45573;-87
2022/02/25 15:38:07;;;;;;;;;1.00;1.00;;;;;14.12;55.27;102102.81;5828830;24;45287;-86
2022/02/25 16:24:22;;;;;;;;;2.00;0.00;;;;;14.30;77.16;102143.31;6289079;22;46446;-86
2022/02/25 16:26:50;;;;;;;;;0.67;0.67;;;;;14.08;70.31;102152.66;6289421;22;45441;-87
2022/02/25 16:29:16;;;;;;;;;2.67;1.33;;;;;14.16;73.52;102159.06;6261434;22;45354;-87
2022/02/25 16:31:45;;;;;;;;;1.33;1.00;;;;;14.04;58.44;102160.56;6261245;22;46179;-87
2022/02/25 16:48:36;;;;;;;;;;;;;;;;;;;;;
2022/02/25 16:51:36;;;;;;;;;;;;;;;;;;;;;
2022/02/25 16:54:51;;;;;;;;;1.00;1.00;;;;;13.90;63.98;102187.91;6162659;23;65153;-88
2022/02/25 17:05:07;;;;;;;;;1.33;1.33;;;;;13.57;74.67;102153.22;6018285;23;45288;-88
2022/02/25 17:08:56;;;;;;;;;2.00;0.67;;;;;13.80;72.76;102202.81;5988219;23;45957;-87
2022/02/25 17:11:21;;;;;;;;;6.00;3.00;;;;;13.47;69.56;102208.25;5877895;24;45363;-84
2022/02/25 17:13:47;;;;;;;;;2.33;1.67;;;;;13.37;73.93;102212.44;5861983;24;45483;-86
2022/02/25 17:16:15;;;;;;;;;3.00;2.00;;;;;13.39;71.64;102220.47;5908329;24;45482;-87